TimeEST,TemperatureF,Dew PointF,Humidity,Sea Level PressureIn,VisibilityMPH,Wind Direction,Wind SpeedMPH,Gust SpeedMPH,PrecipitationIn,Events,Conditions,WindDirDegrees,DateUTC
12:53 AM,32.0,24.1,73,30.42,8.0,Calm,Calm,-,N/A,,Clear,0,2012-12-13 05:53:00
1:53 AM,30.9,24.1,76,30.43,8.0,Calm,Calm,-,N/A,,Clear,0,2012-12-13 06:53:00
2:53 AM,32.0,23.0,69,30.43,9.0,Calm,Calm,-,N/A,,Clear,0,2012-12-13 07:53:00
3:53 AM,30.0,23.0,75,30.43,8.0,Calm,Calm,-,N/A,,Clear,0,2012-12-13 08:53:00
4:53 AM,30.9,23.0,72,30.44,8.0,Calm,Calm,-,N/A,,Clear,0,2012-12-13 09:53:00
5:53 AM,28.0,24.1,85,30.45,7.0,Calm,Calm,-,N/A,,Clear,0,2012-12-13 10:53:00
6:53 AM,28.0,23.0,81,30.47,7.0,Calm,Calm,-,N/A,,Clear,0,2012-12-13 11:53:00
7:53 AM,27.0,23.0,85,30.46,6.0,Calm,Calm,-,N/A,,Clear,0,2012-12-13 12:53:00
8:53 AM,30.0,25.0,82,30.48,4.0,Calm,Calm,-,N/A,,Haze,0,2012-12-13 13:53:00
9:53 AM,36.0,26.1,67,30.48,6.0,Calm,Calm,-,N/A,,Haze,0,2012-12-13 14:53:00
10:53 AM,41.0,25.0,53,30.48,10.0,Calm,Calm,-,N/A,,Clear,0,2012-12-13 15:53:00
11:53 AM,42.1,24.1,49,30.44,10.0,SE,5.8,-,N/A,,Clear,130,2012-12-13 16:53:00
12:53 PM,43.0,23.0,45,30.43,10.0,ESE,3.5,-,N/A,,Clear,120,2012-12-13 17:53:00
1:53 PM,43.0,21.9,43,30.41,10.0,Calm,Calm,-,N/A,,Clear,0,2012-12-13 18:53:00
2:53 PM,43.0,21.9,43,30.39,10.0,Calm,Calm,-,N/A,,Clear,0,2012-12-13 19:53:00
3:53 PM,43.0,21.9,43,30.39,10.0,Calm,Calm,-,N/A,,Clear,0,2012-12-13 20:53:00
4:53 PM,41.0,19.9,43,30.39,10.0,Calm,Calm,-,N/A,,Clear,0,2012-12-13 21:53:00
6:53 PM,35.1,21.9,59,30.39,10.0,Calm,Calm,-,N/A,,Clear,0,2012-12-13 23:53:00
7:53 PM,34.0,21.9,61,30.38,10.0,Calm,Calm,-,N/A,,Clear,0,2012-12-14 00:53:00
8:53 PM,32.0,21.9,66,30.37,10.0,Calm,Calm,-,N/A,,Clear,0,2012-12-14 01:53:00
9:53 PM,30.0,21.9,72,30.35,6.0,Calm,Calm,-,N/A,,Haze,0,2012-12-14 02:53:00
10:53 PM,28.9,23.0,78,30.35,4.0,Calm,Calm,-,N/A,,Haze,0,2012-12-14 03:53:00
11:53 PM,28.0,21.9,78,30.35,6.0,Calm,Calm,-,N/A,,Haze,0,2012-12-14 04:53:00